Time;durP1;ratioP1;P1;durP2;ratioP2;P2;SDS_P1;SDS_P2;PMS_P1;PMS_P2;Temp;Humidity;BMP_temperature;BMP_pressure;BME280_temperature;BME280_humidity;BME280_pressure;Samples;Min_cycle;Max_cycle;Signal;HPM_P1;HPM_P2
2023/01/30 00:00:32;;;;;;;46.38;24.25;;;4.70;99.90;;;;;;5001667;28;20469;-70
2023/01/30 00:02:57;;;;;;;45.35;22.33;;;4.70;99.90;;;;;;4972967;28;20408;-69
2023/01/30 00:05:23;;;;;;;45.92;22.85;;;4.70;99.90;;;;;;4992279;28;20301;-69
2023/01/30 00:07:49;;;;;;;47.67;24.15;;;4.80;99.90;;;;;;4977438;28;20048;-69
2023/01/30 00:10:15;;;;;;;43.92;23.25;;;4.80;99.90;;;;;;4991975;28;20041;-69
2023/01/30 00:12:41;;;;;;;43.35;23.15;;;4.80;99.90;;;;;;4989633;28;20037;-69
2023/01/30 00:15:07;;;;;;;47.92;24.00;;;4.80;99.90;;;;;;4976171;28;20140;-70
2023/01/30 00:17:33;;;;;;;46.72;23.05;;;4.80;99.90;;;;;;4986894;28;20041;-70
2023/01/30 00:19:59;;;;;;;46.75;24.75;;;4.80;99.90;;;;;;4989656;28;20133;-70
2023/01/30 00:22:25;;;;;;;48.15;22.98;;;4.80;99.90;;;;;;4985070;28;20076;-70
2023/01/30 00:24:50;;;;;;;50.97;24.38;;;4.80;99.90;;;;;;4973661;28;20041;-70
2023/01/30 00:27:16;;;;;;;41.17;20.65;;;4.90;99.90;;;;;;4988952;28;20037;-70
2023/01/30 00:29:42;;;;;;;49.22;24.40;;;4.90;99.90;;;;;;4989843;28;20042;-71
2023/01/30 00:32:08;;;;;;;45.05;21.50;;;4.90;99.90;;;;;;4971503;28;20049;-70
2023/01/30 00:34:33;;;;;;;41.17;22.23;;;4.90;99.90;;;;;;4988003;28;20042;-70
2023/01/30 00:36:59;;;;;;;44.22;23.40;;;4.90;99.90;;;;;;4971635;28;20029;-70
2023/01/30 00:39:25;;;;;;;46.08;23.75;;;4.90;99.90;;;;;;4957302;28;20124;-70
2023/01/30 00:47:20;;;;;;;49.10;22.00;;;5.00;99.90;;;;;;4984381;28;20505;-70
2023/01/30 00:49:46;;;;;;;48.28;22.65;;;5.00;99.90;;;;;;4990213;28;20042;-70
2023/01/30 00:52:12;;;;;;;39.05;21.05;;;5.10;99.90;;;;;;4988494;28;20325;-70
2023/01/30 00:54:37;;;;;;;39.47;20.13;;;5.20;99.90;;;;;;4987402;28;20088;-70
2023/01/30 00:57:03;;;;;;;40.00;20.60;;;5.20;99.90;;;;;;4986850;28;20084;-70
2023/01/30 00:59:29;;;;;;;37.70;19.58;;;5.30;99.90;;;;;;4985059;28;20704;-70
2023/01/30 01:01:55;;;;;;;38.08;19.52;;;5.30;99.90;;;;;;4980783;28;20093;-70
2023/01/30 01:04:20;;;;;;;40.25;20.33;;;5.40;99.90;;;;;;4968674;28;20065;-70
2023/01/30 01:06:46;;;;;;;34.47;18.98;;;5.50;99.90;;;;;;4969220;28;20056;-70
2023/01/30 01:09:12;;;;;;;42.40;21.40;;;5.50;99.90;;;;;;4985895;28;20553;-70
2023/01/30 01:11:38;;;;;;;34.10;17.48;;;5.60;99.90;;;;;;4971742;28;20042;-70
2023/01/30 01:14:05;;;;;;;46.72;19.90;;;5.60;99.90;;;;;;4984936;28;20061;-70
2023/01/30 01:16:32;;;;;;;32.90;18.45;;;5.70;99.90;;;;;;4977200;28;20042;-70
2023/01/30 01:18:58;;;;;;;35.53;17.73;;;5.70;99.90;;;;;;4987769;28;20038;-70
2023/01/30 01:21:24;;;;;;;32.13;17.33;;;5.80;99.90;;;;;;4977199;28;21426;-70
2023/01/30 01:23:56;;;;;;;34.33;18.15;;;5.80;99.90;;;;;;4986313;28;20042;-71
2023/01/30 01:26:22;;;;;;;29.83;16.58;;;5.90;99.90;;;;;;4987855;28;20124;-71
2023/01/30 01:28:48;;;;;;;31.63;16.15;;;6.00;99.90;;;;;;4976524;28;20081;-71
2023/01/30 01:31:16;;;;;;;35.58;18.45;;;6.00;99.90;;;;;;4977382;28;20050;-70
2023/01/30 01:33:42;;;;;;;31.85;18.02;;;6.00;99.90;;;;;;4968563;28;20044;-70
2023/01/30 01:36:10;;;;;;;34.85;18.65;;;6.00;99.90;;;;;;4988008;28;20399;-70
2023/01/30 01:38:36;;;;;;;31.63;14.93;;;6.00;99.90;;;;;;4982868;28;20042;-70
2023/01/30 01:41:15;;;;;;;31.42;16.45;;;6.00;99.90;;;;;;4984732;28;20041;-70
2023/01/30 01:44:04;;;;;;;32.53;15.45;;;6.00;99.90;;;;;;4988442;28;20041;-70
2023/01/30 01:46:54;;;;;;;34.60;16.15;;;6.00;99.90;;;;;;4972463;28;20052;-70
2023/01/30 01:49:32;;;;;;;34.47;16.40;;;6.00;99.90;;;;;;5004956;28;20572;-70
2023/01/30 01:52:13;;;;;;;33.35;16.80;;;6.00;99.90;;;;;;4987979;28;20103;-70
2023/01/30 01:54:44;;;;;;;38.40;18.23;;;5.90;99.90;;;;;;5004931;28;20073;-69
2023/01/30 01:57:18;;;;;;;37.28;18.23;;;5.90;99.90;;;;;;4986899;28;20045;-70
2023/01/30 02:00:12;;;;;;;26.33;14.20;;;5.90;99.90;;;;;;4987776;28;20048;-70
2023/01/30 02:02:50;;;;;;;27.83;15.23;;;5.90;99.90;;;;;;4961926;28;20046;-69
2023/01/30 02:05:19;;;;;;;32.90;16.10;;;5.90;99.90;;;;;;4982816;28;20054;-70
2023/01/30 02:08:06;;;;;;;33.60;16.30;;;5.90;99.90;;;;;;4989500;28;20038;-70
2023/01/30 02:11:19;;;;;;;26.13;13.48;;;5.90;99.90;;;;;;4991296;28;20048;-70
2023/01/30 02:13:46;;;;;;;29.02;14.25;;;5.90;99.90;;;;;;4990547;28;20161;-70
2023/01/30 02:16:12;;;;;;;27.92;13.13;;;5.90;99.90;;;;;;4981287;28;20049;-70
2023/01/30 02:18:40;;;;;;;23.88;12.75;;;5.90;99.90;;;;;;4990653;28;20467;-70
2023/01/30 02:21:18;;;;;;;26.45;12.68;;;6.00;99.90;;;;;;4992061;28;20130;-70
2023/01/30 02:23:53;;;;;;;21.60;11.60;;;6.00;99.90;;;;;;4975399;28;20042;-70
2023/01/30 02:26:20;;;;;;;23.77;11.07;;;5.90;99.90;;;;;;4992283;28;20065;-70
2023/01/30 02:29:04;;;;;;;17.10;10.38;;;5.90;99.90;;;;;;4991975;28;20160;-71
2023/01/30 02:31:44;;;;;;;20.63;9.00;;;6.00;99.90;;;;;;4975026;28;20077;-70
2023/01/30 02:34:34;;;;;;;13.95;7.82;;;6.00;99.90;;;;;;4991504;28;20140;-70
2023/01/30 02:37:26;;;;;;;12.85;6.57;;;6.10;99.90;;;;;;4991021;28;20041;-71
2023/01/30 02:40:48;;;;;;;14.10;6.68;;;6.10;99.90;;;;;;4977293;28;20096;-70
2023/01/30 02:43:27;;;;;;;12.43;6.10;;;6.10;99.90;;;;;;4930060;28;20052;-71
2023/01/30 02:46:16;;;;;;;9.88;5.97;;;6.10;99.90;;;;;;4931306;29;20046;-71
2023/01/30 02:49:29;;;;;;;14.85;5.30;;;6.20;99.90;;;;;;4981061;28;20049;-70
2023/01/30 02:52:05;;;;;;;10.35;5.30;;;6.10;99.90;;;;;;4931642;28;20040;-71
2023/01/30 02:54:31;;;;;;;11.75;5.35;;;6.20;99.90;;;;;;4927324;29;20176;-70
2023/01/30 02:56:58;;;;;;;10.38;5.45;;;6.10;99.90;;;;;;4930869;28;20038;-71
2023/01/30 02:59:30;;;;;;;7.13;4.95;;;6.10;99.90;;;;;;4973201;28;20037;-70
2023/01/30 03:02:17;;;;;;;9.88;4.35;;;6.20;99.90;;;;;;4988419;28;20041;-71
2023/01/30 03:05:04;;;;;;;13.10;5.40;;;6.20;99.90;;;;;;4988660;28;20038;-71
2023/01/30 03:08:11;;;;;;;17.15;4.93;;;6.20;99.90;;;;;;4991161;28;20036;-70
2023/01/30 03:10:54;;;;;;;9.15;4.78;;;6.20;99.90;;;;;;4990617;28;20049;-70
2023/01/30 03:13:28;;;;;;;10.88;5.05;;;6.20;99.90;;;;;;4989415;28;20046;-70
2023/01/30 03:16:02;;;;;;;5.60;2.67;;;6.20;99.90;;;;;;5007621;28;20057;-71
2023/01/30 03:18:28;;;;;;;8.50;4.10;;;6.20;99.90;;;;;;4985401;28;20441;-70
2023/01/30 03:20:54;;;;;;;13.50;5.72;;;6.20;99.90;;;;;;4989741;28;20445;-70
2023/01/30 03:23:20;;;;;;;9.60;5.10;;;6.30;99.90;;;;;;4973996;28;20446;-70
2023/01/30 03:25:50;;;;;;;11.73;5.22;;;6.30;99.90;;;;;;4968565;28;20117;-70
2023/01/30 03:28:18;;;;;;;11.55;5.38;;;6.30;99.90;;;;;;4988385;28;20093;-70
2023/01/30 03:30:44;;;;;;;14.63;5.13;;;6.30;99.90;;;;;;4990922;28;20073;-70
2023/01/30 03:33:10;;;;;;;15.85;5.20;;;6.30;99.90;;;;;;4967942;28;20073;-70
2023/01/30 03:35:36;;;;;;;16.50;5.80;;;6.30;99.90;;;;;;4984963;28;20050;-70
2023/01/30 03:38:01;;;;;;;15.27;5.72;;;6.30;99.90;;;;;;4973170;28;20433;-70
2023/01/30 03:40:28;;;;;;;10.95;4.88;;;6.30;99.90;;;;;;4974311;28;20030;-70
2023/01/30 03:42:56;;;;;;;11.90;4.22;;;6.30;99.90;;;;;;4988154;28;20041;-70
2023/01/30 03:45:22;;;;;;;16.80;4.97;;;6.30;99.90;;;;;;4972712;28;20038;-70
2023/01/30 03:47:51;;;;;;;10.93;4.28;;;6.40;99.90;;;;;;4957032;28;20550;-70
2023/01/30 03:50:17;;;;;;;18.35;4.80;;;6.30;99.90;;;;;;4974564;28;20149;-71
2023/01/30 03:52:42;;;;;;;12.15;4.28;;;6.40;99.90;;;;;;4990814;28;20141;-71
2023/01/30 03:55:09;;;;;;;13.18;3.45;;;6.40;99.90;;;;;;4983931;28;20044;-71
2023/01/30 03:57:35;;;;;;;10.70;3.40;;;6.40;99.90;;;;;;4967820;28;20050;-70
2023/01/30 04:00:04;;;;;;;12.50;4.60;;;6.40;99.90;;;;;;4973061;28;20036;-70
2023/01/30 04:02:30;;;;;;;10.52;4.43;;;6.30;99.90;;;;;;4991199;28;20509;-70
2023/01/30 04:04:56;;;;;;;15.52;4.38;;;6.30;99.90;;;;;;4981542;28;20074;-70
2023/01/30 04:07:22;;;;;;;11.32;3.55;;;6.30;99.90;;;;;;4989641;28;21293;-71
2023/01/30 04:09:48;;;;;;;12.07;3.70;;;6.30;99.90;;;;;;4970473;28;20046;-70
2023/01/30 04:12:14;;;;;;;9.95;4.22;;;6.30;99.90;;;;;;4972407;28;20404;-70
2023/01/30 04:14:43;;;;;;;15.80;5.55;;;6.30;99.90;;;;;;4970644;28;20065;-72
2023/01/30 04:17:11;;;;;;;15.50;4.50;;;6.30;99.90;;;;;;4990398;28;20058;-70
2023/01/30 04:19:37;;;;;;;10.60;2.88;;;6.30;99.90;;;;;;4971007;28;20121;-70
2023/01/30 04:22:03;;;;;;;11.70;3.92;;;6.30;99.90;;;;;;4972928;28;20034;-70
2023/01/30 04:24:29;;;;;;;16.23;5.05;;;6.30;99.90;;;;;;4970583;28;20050;-70
2023/01/30 04:26:55;;;;;;;13.55;3.30;;;6.30;99.90;;;;;;4988551;28;20044;-70
2023/01/30 04:29:21;;;;;;;7.95;3.33;;;6.30;99.90;;;;;;4988415;28;20045;-70
2023/01/30 04:31:49;;;;;;;13.52;3.90;;;6.20;99.90;;;;;;4988244;28;20042;-70
2023/01/30 04:34:15;;;;;;;14.43;4.28;;;6.20;99.90;;;;;;4983830;28;20063;-70
2023/01/30 04:36:41;;;;;;;11.95;4.00;;;6.20;99.90;;;;;;4952174;28;20074;-70
2023/01/30 04:39:06;;;;;;;8.65;3.30;;;6.20;99.90;;;;;;4988967;28;20143;-70
2023/01/30 04:41:35;;;;;;;17.17;5.45;;;6.20;99.90;;;;;;4968490;28;20423;-71
2023/01/30 04:44:01;;;;;;;19.30;4.75;;;6.30;99.90;;;;;;4988646;28;20041;-70
2023/01/30 04:46:26;;;;;;;16.73;5.25;;;6.20;99.90;;;;;;4988445;28;20044;-70
2023/01/30 04:48:52;;;;;;;16.63;4.05;;;6.30;99.90;;;;;;4956356;28;20736;-70
2023/01/30 04:51:18;;;;;;;15.82;4.20;;;6.20;99.90;;;;;;4971523;28;20117;-70
2023/01/30 04:53:44;;;;;;;15.00;3.50;;;6.20;99.90;;;;;;4956298;28;20045;-70
2023/01/30 04:56:10;;;;;;;16.95;3.85;;;6.10;99.90;;;;;;4969070;28;20061;-70
2023/01/30 04:58:35;;;;;;;12.95;3.60;;;6.00;99.90;;;;;;4988837;28;20045;-70
2023/01/30 05:01:35;;;;;;;22.98;3.90;;;6.00;99.90;;;;;;4988304;28;21763;-70
2023/01/30 05:04:01;;;;;;;16.92;3.97;;;6.00;99.90;;;;;;4958531;28;20046;-70
2023/01/30 05:06:27;;;;;;;13.05;3.70;;;5.90;99.90;;;;;;4988064;28;20042;-70
2023/01/30 05:08:55;;;;;;;11.35;3.85;;;5.90;99.90;;;;;;4990603;28;20052;-70
2023/01/30 05:11:25;;;;;;;9.32;2.97;;;5.90;99.90;;;;;;4988386;28;20580;-70
2023/01/30 05:13:54;;;;;;;16.08;3.67;;;5.90;99.90;;;;;;4988389;28;20053;-70
2023/01/30 05:16:22;;;;;;;18.75;3.97;;;5.90;99.90;;;;;;4979281;28;20041;-70
2023/01/30 05:18:48;;;;;;;19.20;3.45;;;5.90;99.90;;;;;;4987181;28;20054;-70
2023/01/30 05:21:18;;;;;;;10.13;3.33;;;5.90;99.90;;;;;;4986423;28;20038;-70
2023/01/30 05:23:44;;;;;;;15.15;4.05;;;5.80;99.90;;;;;;4989098;28;20046;-70
2023/01/30 05:26:12;;;;;;;13.20;3.80;;;5.80;99.90;;;;;;4978046;28;20475;-70
2023/01/30 05:28:38;;;;;;;15.43;4.40;;;5.80;99.90;;;;;;4988735;28;20680;-70
2023/01/30 05:31:12;;;;;;;15.82;4.18;;;5.70;99.90;;;;;;4971917;28;20375;-70
2023/01/30 05:33:39;;;;;;;8.02;3.00;;;5.70;99.90;;;;;;4988964;28;20111;-70
2023/01/30 05:36:05;;;;;;;18.42;4.03;;;5.70;99.90;;;;;;4986501;28;20399;-70
2023/01/30 05:38:31;;;;;;;12.23;3.28;;;5.70;99.90;;;;;;4983761;28;20037;-70
2023/01/30 05:40:58;;;;;;;16.35;4.00;;;5.70;99.90;;;;;;4986746;28;20050;-70
2023/01/30 05:43:24;;;;;;;19.42;4.32;;;5.70;99.90;;;;;;4983495;28;20100;-70
2023/01/30 05:45:57;;;;;;;15.73;3.67;;;5.60;99.90;;;;;;5010598;28;20034;-70
2023/01/30 05:48:27;;;;;;;12.75;3.30;;;5.60;99.90;;;;;;5007911;28;20088;-70
2023/01/30 05:50:59;;;;;;;13.75;3.67;;;5.70;99.90;;;;;;4990996;28;20049;-70
2023/01/30 05:53:33;;;;;;;18.52;3.28;;;5.60;99.90;;;;;;4992871;28;20395;-70
2023/01/30 05:56:03;;;;;;;16.73;3.65;;;5.60;99.90;;;;;;4990965;28;20500;-70
2023/01/30 05:58:31;;;;;;;14.52;3.20;;;5.60;99.90;;;;;;4973815;28;20081;-70
2023/01/30 06:01:08;;;;;;;13.75;4.40;;;5.60;99.90;;;;;;4975511;28;20132;-70
2023/01/30 06:03:37;;;;;;;16.80;3.40;;;5.60;99.90;;;;;;4989769;28;20436;-70
2023/01/30 06:06:04;;;;;;;14.48;3.58;;;5.60;99.90;;;;;;4976100;28;20046;-70
2023/01/30 06:08:31;;;;;;;18.00;3.65;;;5.50;99.90;;;;;;4992132;28;20045;-70
2023/01/30 06:11:08;;;;;;;9.55;2.80;;;5.50;99.90;;;;;;4991868;28;20044;-70
2023/01/30 06:13:35;;;;;;;14.48;4.28;;;5.40;99.90;;;;;;4969385;28;20064;-70
2023/01/30 06:16:01;;;;;;;23.75;4.30;;;5.40;99.90;;;;;;4992027;28;20037;-70
2023/01/30 06:18:27;;;;;;;15.68;4.07;;;5.30;99.90;;;;;;4989014;28;20045;-70
2023/01/30 06:20:53;;;;;;;14.75;3.35;;;5.30;99.90;;;;;;4990203;28;20042;-70
2023/01/30 06:23:20;;;;;;;23.05;4.38;;;5.20;99.90;;;;;;4974182;28;20143;-70
2023/01/30 06:25:47;;;;;;;16.77;3.45;;;5.20;99.90;;;;;;4987883;28;20180;-70
2023/01/30 06:28:14;;;;;;;20.30;4.60;;;5.10;99.90;;;;;;4991158;28;20398;-70
2023/01/30 06:30:40;;;;;;;15.50;3.40;;;5.10;99.90;;;;;;4974890;28;20078;-70
2023/01/30 06:33:06;;;;;;;15.85;3.63;;;5.00;99.90;;;;;;4973954;28;20115;-70
2023/01/30 06:35:32;;;;;;;19.40;4.15;;;5.00;99.90;;;;;;4990401;28;20041;-70
2023/01/30 06:37:58;;;;;;;13.93;3.45;;;5.00;99.90;;;;;;5007784;28;20080;-70
2023/01/30 06:40:24;;;;;;;15.55;4.53;;;5.00;99.90;;;;;;4972340;28;20499;-70
2023/01/30 06:42:50;;;;;;;17.13;3.17;;;4.90;99.90;;;;;;4990225;28;20073;-70
2023/01/30 06:45:17;;;;;;;18.08;3.50;;;5.00;99.90;;;;;;4991430;28;20073;-70
2023/01/30 06:47:48;;;;;;;18.80;3.63;;;5.00;99.90;;;;;;4992411;28;20046;-70
2023/01/30 06:50:19;;;;;;;25.80;3.97;;;5.00;99.90;;;;;;4990940;28;20053;-70
2023/01/30 06:52:49;;;;;;;25.13;4.00;;;4.90;99.90;;;;;;4974790;28;20038;-70
2023/01/30 06:55:17;;;;;;;18.98;3.95;;;5.00;99.90;;;;;;4991077;28;20045;-70
2023/01/30 06:57:44;;;;;;;19.38;3.95;;;4.90;99.90;;;;;;4989940;28;20053;-70
2023/01/30 07:00:13;;;;;;;13.02;2.65;;;4.90;99.90;;;;;;4991373;28;20073;-70
2023/01/30 07:02:39;;;;;;;15.50;3.75;;;4.90;99.90;;;;;;4994054;28;20428;-70
2023/01/30 07:05:07;;;;;;;20.75;3.90;;;4.90;99.90;;;;;;4994296;28;20092;-70
2023/01/30 07:07:36;;;;;;;17.10;5.32;;;5.00;99.90;;;;;;4978544;28;20109;-70
2023/01/30 07:10:07;;;;;;;18.75;4.18;;;5.00;99.90;;;;;;4977086;28;20565;-69
2023/01/30 07:12:33;;;;;;;14.73;3.33;;;5.00;99.90;;;;;;4991445;28;20121;-70
2023/01/30 07:14:59;;;;;;;15.00;4.88;;;5.70;99.90;;;;;;4977168;28;20129;-70
2023/01/30 07:17:25;;;;;;;27.77;4.40;;;5.00;99.90;;;;;;4993979;28;20044;-70
2023/01/30 07:19:50;;;;;;;18.45;3.55;;;5.00;99.90;;;;;;4986446;28;20046;-70
2023/01/30 07:22:16;;;;;;;19.83;3.90;;;5.00;99.90;;;;;;4972922;28;20041;-70
2023/01/30 07:24:42;;;;;;;12.25;2.78;;;5.00;99.90;;;;;;4992613;28;20042;-69
2023/01/30 07:27:14;;;;;;;19.60;4.35;;;5.10;99.90;;;;;;4985634;28;20116;-70
2023/01/30 07:29:40;;;;;;;22.55;4.00;;;5.10;99.90;;;;;;4990071;28;20048;-70
2023/01/30 07:32:10;;;;;;;16.05;2.88;;;5.00;99.90;;;;;;4974352;28;20050;-70
2023/01/30 07:34:35;;;;;;;20.83;4.18;;;5.10;99.90;;;;;;4969782;28;20045;-70
2023/01/30 07:37:01;;;;;;;18.75;3.83;;;5.10;99.90;;;;;;4972433;28;20039;-70
2023/01/30 07:39:27;;;;;;;16.63;3.63;;;5.10;99.90;;;;;;4990123;28;20092;-70
2023/01/30 07:41:53;;;;;;;13.98;3.47;;;5.20;99.90;;;;;;4987485;28;20037;-70
2023/01/30 07:44:18;;;;;;;15.98;3.65;;;5.20;99.90;;;;;;4987598;28;20084;-70
2023/01/30 07:46:44;;;;;;;21.27;4.15;;;5.30;99.90;;;;;;4988817;28;20141;-70
2023/01/30 07:49:10;;;;;;;20.60;4.68;;;5.20;99.90;;;;;;4972205;28;20093;-70
2023/01/30 07:51:35;;;;;;;15.95;4.00;;;5.30;99.90;;;;;;4987060;28;20578;-70
2023/01/30 07:54:02;;;;;;;18.80;4.15;;;5.20;99.90;;;;;;4991298;28;20073;-70
2023/01/30 07:56:29;;;;;;;23.45;4.70;;;5.30;99.90;;;;;;4993019;28;20037;-69
2023/01/30 07:58:55;;;;;;;24.67;3.88;;;5.30;99.90;;;;;;4993739;28;20104;-70
2023/01/30 08:01:22;;;;;;;21.27;4.53;;;5.30;99.90;;;;;;5004525;28;20478;-70
2023/01/30 08:03:48;;;;;;;18.48;3.40;;;5.30;99.90;;;;;;4993691;28;20420;-70
2023/01/30 08:06:17;;;;;;;19.45;4.28;;;5.40;99.90;;;;;;5005707;28;20460;-70
2023/01/30 08:08:43;;;;;;;21.05;3.53;;;5.30;99.90;;;;;;5007028;28;20052;-70
2023/01/30 08:11:09;;;;;;;21.13;4.05;;;5.40;99.90;;;;;;4977400;28;20104;-69
2023/01/30 08:13:35;;;;;;;16.42;3.78;;;5.40;99.90;;;;;;4976841;28;20499;-70
2023/01/30 08:16:02;;;;;;;20.73;3.75;;;5.40;99.90;;;;;;4963485;28;20100;-69
2023/01/30 08:18:29;;;;;;;21.55;4.03;;;5.40;99.90;;;;;;4964220;28;20103;-70
2023/01/30 08:21:00;;;;;;;17.83;4.55;;;5.40;99.90;;;;;;4979674;28;20033;-69
2023/01/30 08:23:26;;;;;;;16.00;3.90;;;5.50;99.90;;;;;;4976496;28;20530;-70
2023/01/30 08:26:00;;;;;;;16.38;3.67;;;5.50;99.90;;;;;;4994069;28;20037;-70
2023/01/30 08:28:27;;;;;;;15.07;3.38;;;5.50;99.90;;;;;;4978187;28;20037;-70
2023/01/30 08:30:53;;;;;;;19.95;4.32;;;5.50;99.90;;;;;;4977840;28;20100;-70
2023/01/30 08:33:20;;;;;;;22.83;4.32;;;5.60;99.90;;;;;;4974451;28;20044;-70
2023/01/30 08:35:49;;;;;;;16.25;3.42;;;5.60;99.90;;;;;;4977141;28;20050;-70
2023/01/30 08:38:19;;;;;;;15.48;4.65;;;5.50;99.90;;;;;;4993215;28;20111;-70
2023/01/30 08:40:45;;;;;;;25.40;4.57;;;5.50;99.90;;;;;;5007406;28;20125;-70
2023/01/30 08:43:10;;;;;;;20.08;4.32;;;5.50;99.90;;;;;;4981172;28;20118;-70
2023/01/30 08:45:36;;;;;;;21.33;6.55;;;5.40;99.90;;;;;;4977695;28;20069;-70
2023/01/30 08:48:04;;;;;;;18.88;3.70;;;5.40;99.90;;;;;;4975666;28;20035;-70
2023/01/30 08:50:30;;;;;;;20.55;4.68;;;5.40;99.90;;;;;;4985858;28;20077;-70
2023/01/30 08:52:56;;;;;;;20.15;4.93;;;5.40;99.90;;;;;;4982923;28;20033;-70
2023/01/30 08:55:22;;;;;;;19.75;4.65;;;5.50;99.90;;;;;;4992746;28;20105;-70
2023/01/30 08:57:48;;;;;;;23.75;4.25;;;5.50;99.90;;;;;;5001471;28;20080;-69
2023/01/30 09:00:15;;;;;;;17.45;3.90;;;5.50;99.90;;;;;;4978499;28;20662;-70
2023/01/30 09:02:41;;;;;;;21.83;4.32;;;5.50;99.90;;;;;;4993211;28;20117;-69
2023/01/30 09:05:07;;;;;;;22.55;4.97;;;5.50;99.90;;;;;;4983934;28;20430;-69
2023/01/30 09:07:33;;;;;;;20.95;4.60;;;5.60;99.90;;;;;;4992161;28;20117;-70
2023/01/30 09:09:59;;;;;;;17.17;4.03;;;5.60;99.90;;;;;;4985678;28;20157;-70
2023/01/30 09:12:25;;;;;;;24.65;3.83;;;5.60;99.90;;;;;;4992344;28;20044;-70
2023/01/30 09:14:56;;;;;;;20.63;4.78;;;5.70;99.90;;;;;;4995137;28;20053;-70
2023/01/30 09:17:23;;;;;;;13.00;3.35;;;5.70;99.90;;;;;;4992299;28;20049;-69
2023/01/30 09:19:49;;;;;;;20.90;5.07;;;5.70;99.90;;;;;;4993789;28;20116;-70
2023/01/30 09:22:16;;;;;;;27.42;5.07;;;5.70;99.90;;;;;;4968728;28;20121;-70
2023/01/30 09:24:42;;;;;;;18.23;3.90;;;5.70;99.90;;;;;;4976571;28;20037;-69
2023/01/30 09:27:08;;;;;;;14.45;3.45;;;5.80;99.90;;;;;;4973592;28;20194;-69
2023/01/30 09:29:33;;;;;;;15.65;4.50;;;5.80;99.90;;;;;;4979214;28;20042;-70
2023/01/30 09:31:59;;;;;;;16.33;3.90;;;6.10;99.90;;;;;;4985868;28;20081;-70
2023/01/30 09:34:26;;;;;;;18.63;3.50;;;5.90;99.90;;;;;;4955834;28;20120;-70
2023/01/30 09:37:02;;;;;;;10.15;3.28;;;6.00;99.90;;;;;;4965266;28;20492;-70
2023/01/30 09:39:29;;;;;;;14.55;3.70;;;6.00;99.90;;;;;;4980513;28;20034;-70
2023/01/30 09:42:29;;;;;;;17.23;4.38;;;6.00;99.90;;;;;;4964775;28;20046;-70
2023/01/30 09:45:19;;;;;;;22.67;4.15;;;6.10;99.90;;;;;;4964530;28;20510;-70
2023/01/30 09:48:05;;;;;;;15.80;4.32;;;6.10;99.90;;;;;;4981505;28;20140;-70
2023/01/30 09:50:43;;;;;;;15.15;4.47;;;6.20;99.90;;;;;;4981131;28;20045;-71
2023/01/30 09:53:17;;;;;;;19.70;4.30;;;6.30;99.90;;;;;;4981237;28;20042;-70
2023/01/30 09:55:45;;;;;;;26.20;4.95;;;6.30;99.90;;;;;;4980289;28;20050;-70
2023/01/30 09:58:17;;;;;;;22.55;4.35;;;6.30;99.90;;;;;;4981329;28;20554;-70
2023/01/30 10:00:45;;;;;;;13.00;3.20;;;6.40;99.90;;;;;;4982749;28;20518;-70
2023/01/30 10:03:11;;;;;;;12.25;3.42;;;6.40;99.90;;;;;;4980838;28;20124;-70
2023/01/30 10:05:47;;;;;;;20.40;4.10;;;6.50;99.90;;;;;;4981036;28;20129;-70
2023/01/30 10:08:51;;;;;;;20.48;4.05;;;6.50;99.90;;;;;;4981539;28;20049;-70
2023/01/30 10:11:35;;;;;;;25.23;6.05;;;6.60;99.90;;;;;;4967312;28;20136;-70
2023/01/30 10:14:12;;;;;;;11.15;3.20;;;6.50;99.90;;;;;;4927792;28;20058;-70
2023/01/30 10:17:00;;;;;;;22.10;5.30;;;6.30;99.90;;;;;;4961590;28;20057;-70
2023/01/30 10:19:45;;;;;;;22.48;4.57;;;6.20;99.90;;;;;;4974105;28;20041;-71
2023/01/30 10:22:45;;;;;;;11.65;3.15;;;6.10;99.90;;;;;;4973113;28;20163;-70
2023/01/30 10:25:33;;;;;;;19.13;5.05;;;6.10;99.90;;;;;;4960405;28;20384;-70
2023/01/30 10:28:40;;;;;;;16.92;4.28;;;6.10;99.90;;;;;;4972675;28;20031;-69
2023/01/30 10:31:14;;;;;;;15.20;4.20;;;6.20;99.90;;;;;;4954148;28;20142;-70
2023/01/30 10:34:03;;;;;;;17.15;3.35;;;6.30;99.90;;;;;;4962315;28;20038;-70
2023/01/30 10:36:41;;;;;;;16.48;3.95;;;6.40;99.90;;;;;;4967121;28;20116;-69
2023/01/30 10:39:46;;;;;;;19.60;5.05;;;6.60;99.90;;;;;;4965864;28;20480;-70
2023/01/30 10:42:18;;;;;;;23.38;3.83;;;6.80;99.90;;;;;;4948999;28;20038;-70
2023/01/30 10:44:46;;;;;;;7.80;2.67;;;6.80;99.90;;;;;;4974551;28;20046;-70
2023/01/30 10:47:31;;;;;;;18.40;3.53;;;6.90;99.90;;;;;;4948398;28;20042;-70
2023/01/30 10:50:41;;;;;;;14.02;3.17;;;6.90;99.90;;;;;;4965469;28;20577;-70
2023/01/30 10:53:20;;;;;;;18.35;3.47;;;7.00;99.90;;;;;;4902047;28;20057;-70
2023/01/30 10:56:09;;;;;;;22.08;4.05;;;7.20;99.90;;;;;;4963192;28;20060;-70
2023/01/30 10:58:44;;;;;;;23.73;4.10;;;7.20;99.90;;;;;;4948617;28;20042;-70
2023/01/30 11:01:23;;;;;;;21.63;5.15;;;7.10;99.90;;;;;;4964252;28;20101;-70
2023/01/30 11:04:30;;;;;;;20.63;4.25;;;7.10;99.90;;;;;;4974260;28;20038;-69
2023/01/30 11:06:58;;;;;;;14.80;4.38;;;7.00;99.90;;;;;;4963006;28;20081;-70
2023/01/30 11:09:23;;;;;;;15.38;4.05;;;6.80;99.90;;;;;;4975371;28;20124;-70
2023/01/30 11:11:54;;;;;;;15.13;4.10;;;6.70;99.90;;;;;;4932951;28;21685;-71
2023/01/30 11:14:20;;;;;;;17.52;3.85;;;6.40;99.90;;;;;;4975456;28;20057;-70
2023/01/30 11:16:53;;;;;;;16.50;3.72;;;6.20;99.90;;;;;;4964762;28;20046;-71
2023/01/30 11:19:22;;;;;;;16.77;3.20;;;6.00;99.90;;;;;;4961283;28;20133;-70
2023/01/30 11:21:54;;;;;;;18.90;2.92;;;5.90;99.90;;;;;;4945528;28;21004;-70
2023/01/30 11:24:28;;;;;;;21.73;4.22;;;5.70;99.90;;;;;;4944104;28;20037;-70
2023/01/30 11:27:07;;;;;;;12.63;3.80;;;5.70;99.90;;;;;;4945965;28;20050;-70
2023/01/30 11:29:36;;;;;;;17.88;3.38;;;5.70;99.90;;;;;;4968880;28;20378;-70
2023/01/30 11:32:11;;;;;;;14.20;4.13;;;5.80;99.90;;;;;;4962031;28;20053;-70
2023/01/30 11:34:42;;;;;;;14.80;3.40;;;5.80;99.90;;;;;;4959944;28;20045;-70
2023/01/30 11:37:32;;;;;;;16.70;4.38;;;6.00;99.90;;;;;;4976709;28;20078;-70
2023/01/30 11:39:58;;;;;;;14.90;3.50;;;6.20;99.90;;;;;;4944589;28;20133;-70
2023/01/30 11:42:29;;;;;;;17.52;3.88;;;6.40;99.90;;;;;;4928053;28;20046;-70
2023/01/30 11:44:58;;;;;;;18.17;3.42;;;6.40;99.90;;;;;;4944879;28;20061;-70
2023/01/30 11:47:27;;;;;;;10.02;3.15;;;6.50;99.90;;;;;;4945868;28;20392;-70
2023/01/30 11:49:55;;;;;;;14.23;2.83;;;6.60;99.90;;;;;;4971692;28;20084;-70
2023/01/30 11:52:35;;;;;;;20.20;3.53;;;6.70;99.90;;;;;;4971278;28;20042;-70
2023/01/30 11:55:12;;;;;;;15.00;3.53;;;6.80;99.90;;;;;;4943782;28;20069;-70
2023/01/30 11:57:41;;;;;;;8.85;2.33;;;6.70;99.90;;;;;;4959127;28;20069;-70
2023/01/30 12:00:17;;;;;;;11.05;3.00;;;6.60;99.90;;;;;;4945266;28;20474;-70
2023/01/30 12:02:45;;;;;;;11.00;2.60;;;6.60;99.90;;;;;;4957096;28;20056;-70
2023/01/30 12:05:33;;;;;;;3.90;2.03;;;6.60;99.90;;;;;;4941401;28;20049;-70
2023/01/30 12:08:13;;;;;;;6.57;2.10;;;6.50;99.90;;;;;;4956635;28;20052;-70
2023/01/30 12:10:44;;;;;;;7.68;1.83;;;6.50;99.90;;;;;;4944768;28;20053;-70
2023/01/30 12:13:28;;;;;;;10.20;2.20;;;6.50;99.90;;;;;;4953731;28;20038;-70
2023/01/30 12:16:05;;;;;;;8.18;1.48;;;6.40;99.90;;;;;;4957337;28;20062;-70
2023/01/30 12:18:43;;;;;;;5.68;2.00;;;6.50;99.90;;;;;;4955918;28;20073;-70
2023/01/30 12:21:27;;;;;;;7.68;1.80;;;6.60;99.90;;;;;;4941662;28;20057;-70
2023/01/30 12:23:59;;;;;;;8.38;1.95;;;6.70;99.90;;;;;;4941444;28;20038;-70
2023/01/30 12:26:30;;;;;;;5.40;1.90;;;7.00;99.90;;;;;;4972224;28;20124;-70
2023/01/30 12:29:13;;;;;;;5.50;2.08;;;7.10;99.90;;;;;;4956329;28;20050;-70
2023/01/30 12:31:43;;;;;;;;;;;7.00;99.90;;;;;;4953909;28;20053;-69
2023/01/30 12:34:09;;;;;;;4.93;1.65;;;7.00;99.90;;;;;;4972099;28;20414;-70
2023/01/30 12:36:47;;;;;;;5.88;1.83;;;6.90;99.90;;;;;;4938697;28;20042;-70
2023/01/30 12:39:30;;;;;;;5.18;1.48;;;6.90;99.90;;;;;;4941595;28;20567;-71
2023/01/30 12:42:18;;;;;;;7.18;2.78;;;6.90;99.90;;;;;;4957470;28;20039;-70
2023/01/30 12:45:00;;;;;;;5.65;1.35;;;6.90;99.90;;;;;;4953704;28;20046;-70
2023/01/30 12:47:32;;;;;;;7.20;1.87;;;6.90;99.90;;;;;;4970525;28;20042;-71
2023/01/30 12:50:09;;;;;;;1.70;1.23;;;6.90;99.90;;;;;;4940126;28;20047;-71
2023/01/30 12:52:57;;;;;;;6.55;2.15;;;6.90;99.90;;;;;;4939777;28;20124;-70
2023/01/30 12:55:41;;;;;;;7.22;1.85;;;7.10;99.90;;;;;;4938709;28;20403;-70
2023/01/30 12:58:26;;;;;;;11.68;1.60;;;7.10;99.90;;;;;;4951548;28;20038;-70
2023/01/30 13:01:08;;;;;;;11.52;2.33;;;7.00;99.90;;;;;;4940281;28;21571;-70
2023/01/30 13:03:42;;;;;;;9.35;3.25;;;7.10;99.90;;;;;;4970547;28;20060;-70
2023/01/30 13:06:39;;;;;;;11.10;2.50;;;7.20;99.90;;;;;;4935996;28;20057;-70
2023/01/30 13:09:32;;;;;;;13.93;2.75;;;7.30;99.90;;;;;;4953896;28;20046;-70
2023/01/30 13:12:30;;;;;;;9.73;2.83;;;7.30;99.90;;;;;;4937316;28;20041;-68
2023/01/30 13:15:19;;;;;;;12.10;2.28;;;7.50;99.90;;;;;;4967404;28;20476;-71